Terminal Aerodrome Forecast
Issued by NWS

Home | Current Version | Previous Version | Text Only | Print | Product List | Glossary On
Versions: 1 2 3 4 5 6 7 8 9 10 11 12 13
000
FTAK31 PAJN 260800 AAA
TAFAPG
TAF AMD
PAPG 260806Z 2608/2706 19004KT P6SM FEW025 OVC040
      TEMPO 2609/2612 4SM -RA BR FEW010 OVC025
     FM261400 10003KT 3SM -RA BR BKN015 OVC025
     FM261800 08005KT 6SM -RA BR SCT015 OVC025
      AMD LTD TO CLD VIS AND WIND 2606/2615=

USA.gov is the U.S. government's official web portal to all federal, state and local government web resources and services.